sensor_id;sensor_type;location;lat;lon;timestamp;temperature;humidity
3954;DHT22;1991;48.682;9.030;2022-07-17T00:00:41;17.30;66.20
3954;DHT22;1991;48.682;9.030;2022-07-17T00:03:15;17.30;66.40
3954;DHT22;1991;48.682;9.030;2022-07-17T00:05:41;17.30;66.50
3954;DHT22;1991;48.682;9.030;2022-07-17T00:08:08;17.30;66.60
3954;DHT22;1991;48.682;9.030;2022-07-17T00:10:34;17.30;66.80
3954;DHT22;1991;48.682;9.030;2022-07-17T00:13:01;17.30;66.90
3954;DHT22;1991;48.682;9.030;2022-07-17T00:15:27;17.20;66.80
3954;DHT22;1991;48.682;9.030;2022-07-17T00:17:53;17.20;66.80
3954;DHT22;1991;48.682;9.030;2022-07-17T00:20:18;17.10;66.90
3954;DHT22;1991;48.682;9.030;2022-07-17T00:22:44;17.00;67.20
3954;DHT22;1991;48.682;9.030;2022-07-17T00:25:10;16.90;67.90
3954;DHT22;1991;48.682;9.030;2022-07-17T00:27:37;16.90;68.20
3954;DHT22;1991;48.682;9.030;2022-07-17T00:30:04;16.90;68.60
3954;DHT22;1991;48.682;9.030;2022-07-17T00:32:29;16.90;69.10
3954;DHT22;1991;48.682;9.030;2022-07-17T00:34:55;16.90;69.20
3954;DHT22;1991;48.682;9.030;2022-07-17T00:37:21;16.90;68.80
3954;DHT22;1991;48.682;9.030;2022-07-17T00:39:47;16.90;68.80
3954;DHT22;1991;48.682;9.030;2022-07-17T00:42:13;16.90;68.60
3954;DHT22;1991;48.682;9.030;2022-07-17T00:44:39;16.90;67.90
3954;DHT22;1991;48.682;9.030;2022-07-17T00:47:16;16.90;67.80
3954;DHT22;1991;48.682;9.030;2022-07-17T00:49:42;16.80;68.30
3954;DHT22;1991;48.682;9.030;2022-07-17T00:52:09;16.80;68.90
3954;DHT22;1991;48.682;9.030;2022-07-17T00:54:37;16.80;69.20
3954;DHT22;1991;48.682;9.030;2022-07-17T00:57:06;16.80;69.70
3954;DHT22;1991;48.682;9.030;2022-07-17T00:59:33;16.70;69.60
3954;DHT22;1991;48.682;9.030;2022-07-17T01:02:02;16.70;69.60
3954;DHT22;1991;48.682;9.030;2022-07-17T01:04:28;16.60;69.60
3954;DHT22;1991;48.682;9.030;2022-07-17T01:06:53;16.50;70.10
3954;DHT22;1991;48.682;9.030;2022-07-17T01:09:19;16.30;71.00
3954;DHT22;1991;48.682;9.030;2022-07-17T01:11:45;16.20;71.90
3954;DHT22;1991;48.682;9.030;2022-07-17T01:14:11;16.20;72.50
3954;DHT22;1991;48.682;9.030;2022-07-17T01:16:36;16.20;72.70
3954;DHT22;1991;48.682;9.030;2022-07-17T01:19:02;16.00;72.70
3954;DHT22;1991;48.682;9.030;2022-07-17T01:21:45;16.00;73.20
3954;DHT22;1991;48.682;9.030;2022-07-17T01:24:12;16.10;74.10
3954;DHT22;1991;48.682;9.030;2022-07-17T01:26:40;16.10;73.70
3954;DHT22;1991;48.682;9.030;2022-07-17T01:29:06;16.10;74.30
3954;DHT22;1991;48.682;9.030;2022-07-17T01:31:31;16.10;74.50
3954;DHT22;1991;48.682;9.030;2022-07-17T01:33:58;16.10;74.80
3954;DHT22;1991;48.682;9.030;2022-07-17T01:36:26;16.10;74.70
3954;DHT22;1991;48.682;9.030;2022-07-17T01:38:52;16.00;74.80
3954;DHT22;1991;48.682;9.030;2022-07-17T01:41:18;15.90;75.70
3954;DHT22;1991;48.682;9.030;2022-07-17T01:43:43;15.80;76.10
3954;DHT22;1991;48.682;9.030;2022-07-17T01:46:09;15.80;76.50
3954;DHT22;1991;48.682;9.030;2022-07-17T01:48:34;15.70;77.10
3954;DHT22;1991;48.682;9.030;2022-07-17T01:51:00;15.70;77.00
3954;DHT22;1991;48.682;9.030;2022-07-17T01:53:27;15.70;77.10
3954;DHT22;1991;48.682;9.030;2022-07-17T01:55:53;15.70;77.00
3954;DHT22;1991;48.682;9.030;2022-07-17T01:58:19;15.50;77.80
3954;DHT22;1991;48.682;9.030;2022-07-17T02:00:44;15.40;78.30
3954;DHT22;1991;48.682;9.030;2022-07-17T02:03:10;15.40;79.00
3954;DHT22;1991;48.682;9.030;2022-07-17T02:05:35;15.40;79.30
3954;DHT22;1991;48.682;9.030;2022-07-17T02:08:02;15.40;79.30
3954;DHT22;1991;48.682;9.030;2022-07-17T02:10:28;15.40;79.20
3954;DHT22;1991;48.682;9.030;2022-07-17T02:12:53;15.40;79.60
3954;DHT22;1991;48.682;9.030;2022-07-17T02:15:19;15.30;80.20
3954;DHT22;1991;48.682;9.030;2022-07-17T02:17:44;15.30;80.80
3954;DHT22;1991;48.682;9.030;2022-07-17T02:20:11;15.30;81.10
3954;DHT22;1991;48.682;9.030;2022-07-17T02:22:38;15.30;81.30
3954;DHT22;1991;48.682;9.030;2022-07-17T02:25:05;15.30;81.60
3954;DHT22;1991;48.682;9.030;2022-07-17T02:27:31;15.30;81.70
3954;DHT22;1991;48.682;9.030;2022-07-17T02:29:57;15.30;81.70
3954;DHT22;1991;48.682;9.030;2022-07-17T02:32:22;15.40;81.90
3954;DHT22;1991;48.682;9.030;2022-07-17T02:34:48;15.40;82.10
3954;DHT22;1991;48.682;9.030;2022-07-17T02:37:14;15.30;81.70
3954;DHT22;1991;48.682;9.030;2022-07-17T02:39:40;15.30;81.90
3954;DHT22;1991;48.682;9.030;2022-07-17T02:42:19;15.30;81.80
3954;DHT22;1991;48.682;9.030;2022-07-17T02:44:45;15.30;82.30
3954;DHT22;1991;48.682;9.030;2022-07-17T02:47:10;15.30;82.30
3954;DHT22;1991;48.682;9.030;2022-07-17T02:49:36;15.30;82.20
3954;DHT22;1991;48.682;9.030;2022-07-17T02:52:01;15.30;82.40
3954;DHT22;1991;48.682;9.030;2022-07-17T02:54:27;15.30;82.70
3954;DHT22;1991;48.682;9.030;2022-07-17T02:56:53;15.20;83.10
3954;DHT22;1991;48.682;9.030;2022-07-17T02:59:18;15.20;83.00
3954;DHT22;1991;48.682;9.030;2022-07-17T03:01:44;15.20;82.90
3954;DHT22;1991;48.682;9.030;2022-07-17T03:04:09;15.20;82.80
3954;DHT22;1991;48.682;9.030;2022-07-17T03:06:35;15.20;83.10
3954;DHT22;1991;48.682;9.030;2022-07-17T03:09:00;15.20;83.30
3954;DHT22;1991;48.682;9.030;2022-07-17T03:11:26;15.00;83.90
3954;DHT22;1991;48.682;9.030;2022-07-17T03:13:51;14.80;85.00
3954;DHT22;1991;48.682;9.030;2022-07-17T03:16:17;14.80;86.00
3954;DHT22;1991;48.682;9.030;2022-07-17T03:18:43;14.80;86.60
3954;DHT22;1991;48.682;9.030;2022-07-17T03:21:09;14.80;86.40
3954;DHT22;1991;48.682;9.030;2022-07-17T03:23:35;14.80;86.40
3954;DHT22;1991;48.682;9.030;2022-07-17T03:26:00;14.80;86.80
3954;DHT22;1991;48.682;9.030;2022-07-17T03:28:26;14.70;87.10
3954;DHT22;1991;48.682;9.030;2022-07-17T03:30:51;14.50;88.20
3954;DHT22;1991;48.682;9.030;2022-07-17T03:33:17;14.40;89.00
3954;DHT22;1991;48.682;9.030;2022-07-17T03:35:42;14.50;89.50
3954;DHT22;1991;48.682;9.030;2022-07-17T03:38:08;14.50;89.90
3954;DHT22;1991;48.682;9.030;2022-07-17T03:40:34;14.50;89.50
3954;DHT22;1991;48.682;9.030;2022-07-17T03:42:59;14.60;89.50
3954;DHT22;1991;48.682;9.030;2022-07-17T03:45:25;14.60;89.10
3954;DHT22;1991;48.682;9.030;2022-07-17T03:47:50;14.60;88.70
3954;DHT22;1991;48.682;9.030;2022-07-17T03:50:16;14.60;88.30
3954;DHT22;1991;48.682;9.030;2022-07-17T03:52:42;14.70;88.20
3954;DHT22;1991;48.682;9.030;2022-07-17T03:55:07;14.70;88.60
3954;DHT22;1991;48.682;9.030;2022-07-17T03:57:33;14.70;88.30
3954;DHT22;1991;48.682;9.030;2022-07-17T03:59:59;14.70;87.90
3954;DHT22;1991;48.682;9.030;2022-07-17T04:02:24;14.70;87.80
3954;DHT22;1991;48.682;9.030;2022-07-17T04:04:50;14.70;88.00
3954;DHT22;1991;48.682;9.030;2022-07-17T04:07:15;14.70;88.60
3954;DHT22;1991;48.682;9.030;2022-07-17T04:09:57;14.70;88.80
3954;DHT22;1991;48.682;9.030;2022-07-17T04:12:24;14.70;89.30
3954;DHT22;1991;48.682;9.030;2022-07-17T04:14:49;14.60;88.90
3954;DHT22;1991;48.682;9.030;2022-07-17T04:17:15;14.60;89.00
3954;DHT22;1991;48.682;9.030;2022-07-17T04:19:41;14.50;89.60
3954;DHT22;1991;48.682;9.030;2022-07-17T04:22:06;14.30;90.00
3954;DHT22;1991;48.682;9.030;2022-07-17T04:24:32;14.30;90.50
3954;DHT22;1991;48.682;9.030;2022-07-17T04:26:57;14.30;90.70
3954;DHT22;1991;48.682;9.030;2022-07-17T04:29:23;14.30;90.80
3954;DHT22;1991;48.682;9.030;2022-07-17T04:31:48;14.40;90.90
3954;DHT22;1991;48.682;9.030;2022-07-17T04:34:14;14.50;91.00
3954;DHT22;1991;48.682;9.030;2022-07-17T04:36:40;14.60;90.80
3954;DHT22;1991;48.682;9.030;2022-07-17T04:39:06;14.70;90.60
3954;DHT22;1991;48.682;9.030;2022-07-17T04:41:31;14.80;90.40
3954;DHT22;1991;48.682;9.030;2022-07-17T04:43:57;14.80;90.30
3954;DHT22;1991;48.682;9.030;2022-07-17T04:46:22;14.70;90.60
3954;DHT22;1991;48.682;9.030;2022-07-17T04:48:48;14.80;90.60
3954;DHT22;1991;48.682;9.030;2022-07-17T04:51:13;14.90;90.60
3954;DHT22;1991;48.682;9.030;2022-07-17T04:53:39;14.90;90.50
3954;DHT22;1991;48.682;9.030;2022-07-17T04:56:05;15.00;90.30
3954;DHT22;1991;48.682;9.030;2022-07-17T04:58:30;15.00;89.80
3954;DHT22;1991;48.682;9.030;2022-07-17T05:00:56;15.10;90.10
3954;DHT22;1991;48.682;9.030;2022-07-17T05:03:21;15.20;90.00
3954;DHT22;1991;48.682;9.030;2022-07-17T05:05:47;15.30;89.90
3954;DHT22;1991;48.682;9.030;2022-07-17T05:08:12;15.40;89.70
3954;DHT22;1991;48.682;9.030;2022-07-17T05:10:38;15.50;88.80
3954;DHT22;1991;48.682;9.030;2022-07-17T05:13:04;15.60;88.40
3954;DHT22;1991;48.682;9.030;2022-07-17T05:15:29;15.60;87.60
3954;DHT22;1991;48.682;9.030;2022-07-17T05:17:55;15.60;87.20
3954;DHT22;1991;48.682;9.030;2022-07-17T05:20:21;15.70;87.40
3954;DHT22;1991;48.682;9.030;2022-07-17T05:22:46;15.70;86.60
3954;DHT22;1991;48.682;9.030;2022-07-17T05:25:12;15.80;86.40
3954;DHT22;1991;48.682;9.030;2022-07-17T05:27:37;15.90;86.40
3954;DHT22;1991;48.682;9.030;2022-07-17T05:30:04;16.00;85.80
3954;DHT22;1991;48.682;9.030;2022-07-17T05:32:29;16.10;85.30
3954;DHT22;1991;48.682;9.030;2022-07-17T05:34:55;16.20;84.80
3954;DHT22;1991;48.682;9.030;2022-07-17T05:37:21;16.30;84.50
3954;DHT22;1991;48.682;9.030;2022-07-17T05:39:46;16.40;84.10
3954;DHT22;1991;48.682;9.030;2022-07-17T05:42:12;16.40;83.80
3954;DHT22;1991;48.682;9.030;2022-07-17T05:44:37;16.50;83.70
3954;DHT22;1991;48.682;9.030;2022-07-17T05:47:03;16.50;83.70
3954;DHT22;1991;48.682;9.030;2022-07-17T05:49:28;16.70;83.00
3954;DHT22;1991;48.682;9.030;2022-07-17T05:51:54;16.90;82.80
3954;DHT22;1991;48.682;9.030;2022-07-17T05:54:20;17.00;82.50
3954;DHT22;1991;48.682;9.030;2022-07-17T05:56:45;17.10;81.40
3954;DHT22;1991;48.682;9.030;2022-07-17T05:59:12;17.20;81.20
3954;DHT22;1991;48.682;9.030;2022-07-17T06:01:38;17.40;80.60
3954;DHT22;1991;48.682;9.030;2022-07-17T06:04:03;17.60;79.90
3954;DHT22;1991;48.682;9.030;2022-07-17T06:06:29;17.80;78.30
3954;DHT22;1991;48.682;9.030;2022-07-17T06:08:54;17.90;78.40
3954;DHT22;1991;48.682;9.030;2022-07-17T06:11:20;18.10;77.50
3954;DHT22;1991;48.682;9.030;2022-07-17T06:13:46;18.20;76.40
3954;DHT22;1991;48.682;9.030;2022-07-17T06:16:11;18.40;75.20
3954;DHT22;1991;48.682;9.030;2022-07-17T06:18:37;18.60;74.70
3954;DHT22;1991;48.682;9.030;2022-07-17T06:21:02;18.60;74.50
3954;DHT22;1991;48.682;9.030;2022-07-17T06:23:29;18.80;73.70
3954;DHT22;1991;48.682;9.030;2022-07-17T06:25:55;19.00;72.60
3954;DHT22;1991;48.682;9.030;2022-07-17T06:28:21;19.10;71.30
3954;DHT22;1991;48.682;9.030;2022-07-17T06:30:47;19.30;70.60
3954;DHT22;1991;48.682;9.030;2022-07-17T06:33:13;19.40;70.40
3954;DHT22;1991;48.682;9.030;2022-07-17T06:35:38;19.70;69.90
3954;DHT22;1991;48.682;9.030;2022-07-17T06:38:04;20.00;69.30
3954;DHT22;1991;48.682;9.030;2022-07-17T06:40:30;20.20;67.60
3954;DHT22;1991;48.682;9.030;2022-07-17T06:42:55;20.50;67.00
3954;DHT22;1991;48.682;9.030;2022-07-17T06:45:21;20.70;65.30
3954;DHT22;1991;48.682;9.030;2022-07-17T06:47:47;20.90;64.50
3954;DHT22;1991;48.682;9.030;2022-07-17T06:50:13;21.10;65.50
3954;DHT22;1991;48.682;9.030;2022-07-17T06:52:38;21.40;62.80
3954;DHT22;1991;48.682;9.030;2022-07-17T06:55:04;21.70;62.40
3954;DHT22;1991;48.682;9.030;2022-07-17T06:57:31;21.90;61.50
3954;DHT22;1991;48.682;9.030;2022-07-17T06:59:57;22.20;61.40
3954;DHT22;1991;48.682;9.030;2022-07-17T07:02:22;22.40;60.30
3954;DHT22;1991;48.682;9.030;2022-07-17T07:04:48;22.60;59.80
3954;DHT22;1991;48.682;9.030;2022-07-17T07:07:13;22.80;59.50
3954;DHT22;1991;48.682;9.030;2022-07-17T07:09:39;23.10;58.40
3954;DHT22;1991;48.682;9.030;2022-07-17T07:12:05;23.30;58.00
3954;DHT22;1991;48.682;9.030;2022-07-17T07:14:30;23.50;57.70
3954;DHT22;1991;48.682;9.030;2022-07-17T07:16:56;23.80;58.70
3954;DHT22;1991;48.682;9.030;2022-07-17T07:19:22;24.10;56.10
3954;DHT22;1991;48.682;9.030;2022-07-17T07:21:47;24.30;55.80
3954;DHT22;1991;48.682;9.030;2022-07-17T07:24:13;24.50;54.10
3954;DHT22;1991;48.682;9.030;2022-07-17T07:26:38;24.50;51.80
3954;DHT22;1991;48.682;9.030;2022-07-17T07:29:04;24.70;50.50
3954;DHT22;1991;48.682;9.030;2022-07-17T07:31:30;24.70;49.40
3954;DHT22;1991;48.682;9.030;2022-07-17T07:33:55;24.80;49.30
3954;DHT22;1991;48.682;9.030;2022-07-17T07:36:21;24.90;48.60
3954;DHT22;1991;48.682;9.030;2022-07-17T07:38:46;24.90;49.30
3954;DHT22;1991;48.682;9.030;2022-07-17T07:41:12;25.00;48.50
3954;DHT22;1991;48.682;9.030;2022-07-17T07:43:38;25.10;48.30
3954;DHT22;1991;48.682;9.030;2022-07-17T07:46:03;24.90;48.30
3954;DHT22;1991;48.682;9.030;2022-07-17T07:48:29;24.90;48.50
3954;DHT22;1991;48.682;9.030;2022-07-17T07:50:55;24.80;48.60
3954;DHT22;1991;48.682;9.030;2022-07-17T07:53:21;24.90;48.20
3954;DHT22;1991;48.682;9.030;2022-07-17T07:55:46;25.00;48.40
3954;DHT22;1991;48.682;9.030;2022-07-17T07:58:13;25.20;47.80
3954;DHT22;1991;48.682;9.030;2022-07-17T08:00:42;25.20;47.60
3954;DHT22;1991;48.682;9.030;2022-07-17T08:03:08;25.40;48.30
3954;DHT22;1991;48.682;9.030;2022-07-17T08:05:33;25.70;47.10
3954;DHT22;1991;48.682;9.030;2022-07-17T08:07:59;25.90;46.70
3954;DHT22;1991;48.682;9.030;2022-07-17T08:10:26;26.00;46.10
3954;DHT22;1991;48.682;9.030;2022-07-17T08:12:51;26.10;46.10
3954;DHT22;1991;48.682;9.030;2022-07-17T08:15:18;26.10;45.70
3954;DHT22;1991;48.682;9.030;2022-07-17T08:17:44;26.30;45.70
3954;DHT22;1991;48.682;9.030;2022-07-17T08:20:11;26.50;45.30
3954;DHT22;1991;48.682;9.030;2022-07-17T08:22:36;26.50;44.50
3954;DHT22;1991;48.682;9.030;2022-07-17T08:25:02;26.60;43.90
3954;DHT22;1991;48.682;9.030;2022-07-17T08:27:28;26.50;44.10
3954;DHT22;1991;48.682;9.030;2022-07-17T08:29:53;26.60;44.80
3954;DHT22;1991;48.682;9.030;2022-07-17T08:32:19;26.70;45.30
3954;DHT22;1991;48.682;9.030;2022-07-17T08:34:45;26.80;44.60
3954;DHT22;1991;48.682;9.030;2022-07-17T08:37:11;26.80;44.10
3954;DHT22;1991;48.682;9.030;2022-07-17T08:39:36;26.80;43.70
3954;DHT22;1991;48.682;9.030;2022-07-17T08:42:02;26.90;43.20
3954;DHT22;1991;48.682;9.030;2022-07-17T08:44:28;27.00;42.90
3954;DHT22;1991;48.682;9.030;2022-07-17T08:46:54;27.00;43.00
3954;DHT22;1991;48.682;9.030;2022-07-17T08:49:21;27.00;42.80
3954;DHT22;1991;48.682;9.030;2022-07-17T08:51:49;27.00;44.00
3954;DHT22;1991;48.682;9.030;2022-07-17T08:54:15;26.90;42.60
3954;DHT22;1991;48.682;9.030;2022-07-17T08:56:41;26.90;43.20
3954;DHT22;1991;48.682;9.030;2022-07-17T08:59:07;26.90;43.90
3954;DHT22;1991;48.682;9.030;2022-07-17T09:01:33;27.30;43.00
3954;DHT22;1991;48.682;9.030;2022-07-17T09:04:01;27.60;42.70
3954;DHT22;1991;48.682;9.030;2022-07-17T09:06:32;27.90;43.20
3954;DHT22;1991;48.682;9.030;2022-07-17T09:09:11;28.00;42.30
3954;DHT22;1991;48.682;9.030;2022-07-17T09:11:45;28.10;41.50
3954;DHT22;1991;48.682;9.030;2022-07-17T09:14:11;28.30;41.90
3954;DHT22;1991;48.682;9.030;2022-07-17T09:16:48;28.70;41.40
3954;DHT22;1991;48.682;9.030;2022-07-17T09:22:10;29.30;40.50
3954;DHT22;1991;48.682;9.030;2022-07-17T09:24:44;29.10;39.50
3954;DHT22;1991;48.682;9.030;2022-07-17T09:27:11;29.00;39.20
3954;DHT22;1991;48.682;9.030;2022-07-17T09:32:23;29.30;38.40
3954;DHT22;1991;48.682;9.030;2022-07-17T09:34:51;29.40;38.50
3954;DHT22;1991;48.682;9.030;2022-07-17T09:37:17;29.40;37.50
3954;DHT22;1991;48.682;9.030;2022-07-17T09:39:43;29.40;38.60
3954;DHT22;1991;48.682;9.030;2022-07-17T09:42:20;29.40;37.90
3954;DHT22;1991;48.682;9.030;2022-07-17T09:44:56;29.60;38.50
3954;DHT22;1991;48.682;9.030;2022-07-17T09:47:24;29.90;37.40
3954;DHT22;1991;48.682;9.030;2022-07-17T09:49:54;29.90;37.00
3954;DHT22;1991;48.682;9.030;2022-07-17T09:52:23;29.70;38.00
3954;DHT22;1991;48.682;9.030;2022-07-17T09:54:52;30.10;38.40
3954;DHT22;1991;48.682;9.030;2022-07-17T09:57:19;30.10;36.30
3954;DHT22;1991;48.682;9.030;2022-07-17T09:59:46;30.10;36.00
3954;DHT22;1991;48.682;9.030;2022-07-17T10:02:12;30.10;36.70
3954;DHT22;1991;48.682;9.030;2022-07-17T10:04:40;30.30;36.80
3954;DHT22;1991;48.682;9.030;2022-07-17T10:07:06;30.50;37.00
3954;DHT22;1991;48.682;9.030;2022-07-17T10:09:34;30.70;37.20
3954;DHT22;1991;48.682;9.030;2022-07-17T10:12:01;31.00;36.00
3954;DHT22;1991;48.682;9.030;2022-07-17T10:14:27;31.00;37.10
3954;DHT22;1991;48.682;9.030;2022-07-17T10:16:54;31.30;36.90
3954;DHT22;1991;48.682;9.030;2022-07-17T10:19:24;31.50;36.50
3954;DHT22;1991;48.682;9.030;2022-07-17T10:22:00;31.50;35.60
3954;DHT22;1991;48.682;9.030;2022-07-17T10:24:27;31.50;35.70
3954;DHT22;1991;48.682;9.030;2022-07-17T10:26:55;31.60;35.80
3954;DHT22;1991;48.682;9.030;2022-07-17T10:29:39;31.50;34.50
3954;DHT22;1991;48.682;9.030;2022-07-17T10:32:14;31.20;34.50
3954;DHT22;1991;48.682;9.030;2022-07-17T10:37:20;31.20;35.50
3954;DHT22;1991;48.682;9.030;2022-07-17T10:40:16;31.30;35.40
3954;DHT22;1991;48.682;9.030;2022-07-17T10:42:59;31.70;35.40
3954;DHT22;1991;48.682;9.030;2022-07-17T10:50:34;31.70;32.40
3954;DHT22;1991;48.682;9.030;2022-07-17T10:55:44;31.70;32.40
3954;DHT22;1991;48.682;9.030;2022-07-17T10:58:19;31.70;31.30
3954;DHT22;1991;48.682;9.030;2022-07-17T11:06:12;31.70;33.30
3954;DHT22;1991;48.682;9.030;2022-07-17T11:08:58;31.70;33.50
3954;DHT22;1991;48.682;9.030;2022-07-17T11:11:45;31.50;32.80
3954;DHT22;1991;48.682;9.030;2022-07-17T11:14:13;31.70;33.70
3954;DHT22;1991;48.682;9.030;2022-07-17T11:16:48;31.60;32.70
3954;DHT22;1991;48.682;9.030;2022-07-17T11:19:34;31.60;32.00
3954;DHT22;1991;48.682;9.030;2022-07-17T11:22:06;31.60;32.60
3954;DHT22;1991;48.682;9.030;2022-07-17T11:24:42;31.50;31.50
3954;DHT22;1991;48.682;9.030;2022-07-17T11:27:18;31.40;32.50
3954;DHT22;1991;48.682;9.030;2022-07-17T11:29:43;31.70;32.40
3954;DHT22;1991;48.682;9.030;2022-07-17T11:32:09;31.60;30.20
3954;DHT22;1991;48.682;9.030;2022-07-17T11:34:35;31.60;29.80
3954;DHT22;1991;48.682;9.030;2022-07-17T11:37:02;31.70;31.20
3954;DHT22;1991;48.682;9.030;2022-07-17T11:39:55;31.90;31.50
3954;DHT22;1991;48.682;9.030;2022-07-17T11:42:22;32.20;30.80
3954;DHT22;1991;48.682;9.030;2022-07-17T11:44:54;32.40;32.40
3954;DHT22;1991;48.682;9.030;2022-07-17T11:47:23;32.30;31.30
3954;DHT22;1991;48.682;9.030;2022-07-17T11:49:49;32.10;31.20
3954;DHT22;1991;48.682;9.030;2022-07-17T11:52:17;31.80;31.30
3954;DHT22;1991;48.682;9.030;2022-07-17T11:54:49;31.80;31.20
3954;DHT22;1991;48.682;9.030;2022-07-17T11:57:16;31.70;30.30
3954;DHT22;1991;48.682;9.030;2022-07-17T11:59:43;31.70;31.20
3954;DHT22;1991;48.682;9.030;2022-07-17T12:02:16;32.00;32.00
3954;DHT22;1991;48.682;9.030;2022-07-17T12:04:56;32.20;31.20
3954;DHT22;1991;48.682;9.030;2022-07-17T12:07:23;32.20;31.10
3954;DHT22;1991;48.682;9.030;2022-07-17T12:09:49;32.50;31.00
3954;DHT22;1991;48.682;9.030;2022-07-17T12:12:23;32.60;29.90
3954;DHT22;1991;48.682;9.030;2022-07-17T12:14:59;32.60;29.40
3954;DHT22;1991;48.682;9.030;2022-07-17T12:17:37;32.50;30.00
3954;DHT22;1991;48.682;9.030;2022-07-17T12:20:05;32.40;29.10
3954;DHT22;1991;48.682;9.030;2022-07-17T12:22:45;32.20;28.70
3954;DHT22;1991;48.682;9.030;2022-07-17T12:25:25;32.30;30.00
3954;DHT22;1991;48.682;9.030;2022-07-17T12:27:51;32.10;30.10
3954;DHT22;1991;48.682;9.030;2022-07-17T12:30:17;32.20;30.10
3954;DHT22;1991;48.682;9.030;2022-07-17T12:32:43;32.30;29.60
3954;DHT22;1991;48.682;9.030;2022-07-17T12:35:09;32.30;29.60
3954;DHT22;1991;48.682;9.030;2022-07-17T12:37:35;32.20;30.10
3954;DHT22;1991;48.682;9.030;2022-07-17T12:40:00;32.20;29.70
3954;DHT22;1991;48.682;9.030;2022-07-17T12:42:26;31.80;29.40
3954;DHT22;1991;48.682;9.030;2022-07-17T12:44:52;31.30;30.20
3954;DHT22;1991;48.682;9.030;2022-07-17T12:47:17;31.20;30.00
3954;DHT22;1991;48.682;9.030;2022-07-17T12:49:43;31.30;30.00
3954;DHT22;1991;48.682;9.030;2022-07-17T12:52:08;31.30;31.00
3954;DHT22;1991;48.682;9.030;2022-07-17T12:54:34;31.70;30.70
3954;DHT22;1991;48.682;9.030;2022-07-17T12:57:00;31.90;30.30
3954;DHT22;1991;48.682;9.030;2022-07-17T12:59:25;31.90;29.70
3954;DHT22;1991;48.682;9.030;2022-07-17T13:01:51;31.80;29.80
3954;DHT22;1991;48.682;9.030;2022-07-17T13:04:18;31.80;30.80
3954;DHT22;1991;48.682;9.030;2022-07-17T13:06:45;31.80;29.70
3954;DHT22;1991;48.682;9.030;2022-07-17T13:09:11;31.90;29.50
3954;DHT22;1991;48.682;9.030;2022-07-17T13:11:42;31.80;30.10
3954;DHT22;1991;48.682;9.030;2022-07-17T13:14:08;31.90;30.00
3954;DHT22;1991;48.682;9.030;2022-07-17T13:16:38;32.00;30.50
3954;DHT22;1991;48.682;9.030;2022-07-17T13:19:04;32.00;28.80
3954;DHT22;1991;48.682;9.030;2022-07-17T13:21:30;32.10;29.20
3954;DHT22;1991;48.682;9.030;2022-07-17T13:23:56;32.10;29.40
3954;DHT22;1991;48.682;9.030;2022-07-17T13:26:22;32.20;30.30
3954;DHT22;1991;48.682;9.030;2022-07-17T13:28:47;32.20;29.60
3954;DHT22;1991;48.682;9.030;2022-07-17T13:31:13;32.40;29.70
3954;DHT22;1991;48.682;9.030;2022-07-17T13:33:39;32.40;29.90
3954;DHT22;1991;48.682;9.030;2022-07-17T13:36:05;32.60;28.90
3954;DHT22;1991;48.682;9.030;2022-07-17T13:38:30;32.60;28.70
3954;DHT22;1991;48.682;9.030;2022-07-17T13:40:56;32.60;29.10
3954;DHT22;1991;48.682;9.030;2022-07-17T13:43:22;32.60;29.30
3954;DHT22;1991;48.682;9.030;2022-07-17T13:45:47;32.60;29.00
3954;DHT22;1991;48.682;9.030;2022-07-17T13:48:13;32.50;29.20
3954;DHT22;1991;48.682;9.030;2022-07-17T13:50:41;32.40;28.60
3954;DHT22;1991;48.682;9.030;2022-07-17T13:53:06;32.50;28.20
3954;DHT22;1991;48.682;9.030;2022-07-17T13:55:32;32.60;28.20
3954;DHT22;1991;48.682;9.030;2022-07-17T13:57:58;32.20;28.10
3954;DHT22;1991;48.682;9.030;2022-07-17T14:00:24;32.20;29.10
3954;DHT22;1991;48.682;9.030;2022-07-17T14:02:50;32.10;29.60
3954;DHT22;1991;48.682;9.030;2022-07-17T14:05:16;32.00;29.70
3954;DHT22;1991;48.682;9.030;2022-07-17T14:07:42;32.00;29.90
3954;DHT22;1991;48.682;9.030;2022-07-17T14:10:08;32.00;29.50
3954;DHT22;1991;48.682;9.030;2022-07-17T14:12:35;31.90;29.70
3954;DHT22;1991;48.682;9.030;2022-07-17T14:15:02;32.00;29.80
3954;DHT22;1991;48.682;9.030;2022-07-17T14:17:27;32.00;29.80
3954;DHT22;1991;48.682;9.030;2022-07-17T14:19:53;31.80;29.30
3954;DHT22;1991;48.682;9.030;2022-07-17T14:22:19;31.60;29.80
3954;DHT22;1991;48.682;9.030;2022-07-17T14:24:44;31.50;30.70
3954;DHT22;1991;48.682;9.030;2022-07-17T14:27:10;31.50;29.80
3954;DHT22;1991;48.682;9.030;2022-07-17T14:29:35;31.40;29.90
3954;DHT22;1991;48.682;9.030;2022-07-17T14:32:01;31.30;30.10
3954;DHT22;1991;48.682;9.030;2022-07-17T14:34:27;31.30;30.00
3954;DHT22;1991;48.682;9.030;2022-07-17T14:36:53;31.20;29.90
3954;DHT22;1991;48.682;9.030;2022-07-17T14:39:18;31.30;30.00
3954;DHT22;1991;48.682;9.030;2022-07-17T14:41:44;31.10;30.00
3954;DHT22;1991;48.682;9.030;2022-07-17T14:44:11;31.10;30.50
3954;DHT22;1991;48.682;9.030;2022-07-17T14:46:36;31.10;30.60
3954;DHT22;1991;48.682;9.030;2022-07-17T14:49:02;31.00;30.50
3954;DHT22;1991;48.682;9.030;2022-07-17T14:51:28;30.90;30.80
3954;DHT22;1991;48.682;9.030;2022-07-17T14:53:53;30.70;31.10
3954;DHT22;1991;48.682;9.030;2022-07-17T14:56:19;30.60;31.20
3954;DHT22;1991;48.682;9.030;2022-07-17T14:58:45;30.50;30.70
3954;DHT22;1991;48.682;9.030;2022-07-17T15:01:10;30.60;30.80
3954;DHT22;1991;48.682;9.030;2022-07-17T15:03:36;30.50;31.60
3954;DHT22;1991;48.682;9.030;2022-07-17T15:06:02;30.50;32.00
3954;DHT22;1991;48.682;9.030;2022-07-17T15:08:27;30.40;30.50
3954;DHT22;1991;48.682;9.030;2022-07-17T15:10:53;30.30;32.00
3954;DHT22;1991;48.682;9.030;2022-07-17T15:13:19;30.10;32.00
3954;DHT22;1991;48.682;9.030;2022-07-17T15:15:44;30.10;31.90
3954;DHT22;1991;48.682;9.030;2022-07-17T15:18:10;30.10;31.70
3954;DHT22;1991;48.682;9.030;2022-07-17T15:20:36;30.00;32.50
3954;DHT22;1991;48.682;9.030;2022-07-17T15:23:02;30.10;32.70
3954;DHT22;1991;48.682;9.030;2022-07-17T15:25:28;30.00;31.70
3954;DHT22;1991;48.682;9.030;2022-07-17T15:27:54;29.90;31.80
3954;DHT22;1991;48.682;9.030;2022-07-17T15:30:19;29.90;32.10
3954;DHT22;1991;48.682;9.030;2022-07-17T15:32:45;29.80;32.40
3954;DHT22;1991;48.682;9.030;2022-07-17T15:35:11;29.60;31.50
3954;DHT22;1991;48.682;9.030;2022-07-17T15:37:37;29.50;31.70
3954;DHT22;1991;48.682;9.030;2022-07-17T15:40:03;29.50;32.30
3954;DHT22;1991;48.682;9.030;2022-07-17T15:42:29;29.40;32.00
3954;DHT22;1991;48.682;9.030;2022-07-17T15:44:55;29.30;32.40
3954;DHT22;1991;48.682;9.030;2022-07-17T15:47:21;29.20;32.50
3954;DHT22;1991;48.682;9.030;2022-07-17T15:49:47;29.20;32.40
3954;DHT22;1991;48.682;9.030;2022-07-17T15:52:12;29.20;33.40
3954;DHT22;1991;48.682;9.030;2022-07-17T15:54:38;29.00;32.20
3954;DHT22;1991;48.682;9.030;2022-07-17T15:57:03;28.90;31.80
3954;DHT22;1991;48.682;9.030;2022-07-17T15:59:29;28.90;32.40
3954;DHT22;1991;48.682;9.030;2022-07-17T16:01:55;28.90;33.40
3954;DHT22;1991;48.682;9.030;2022-07-17T16:04:20;28.70;32.60
3954;DHT22;1991;48.682;9.030;2022-07-17T16:06:46;28.70;33.40
3954;DHT22;1991;48.682;9.030;2022-07-17T16:09:13;28.60;33.70
3954;DHT22;1991;48.682;9.030;2022-07-17T16:11:39;28.50;34.00
3954;DHT22;1991;48.682;9.030;2022-07-17T16:14:05;28.50;32.30
3954;DHT22;1991;48.682;9.030;2022-07-17T16:16:30;28.40;33.40
3954;DHT22;1991;48.682;9.030;2022-07-17T16:18:56;28.40;34.10
3954;DHT22;1991;48.682;9.030;2022-07-17T16:21:23;28.30;31.70